Time;durP1;ratioP1;P1;durP2;ratioP2;P2;SDS_P1;SDS_P2;PMS_P1;PMS_P2;Temp;Humidity;BMP_temperature;BMP_pressure;BME280_temperature;BME280_humidity;BME280_pressure;Samples;Min_cycle;Max_cycle;Signal;HPM_P1;HPM_P2
2022/01/24 00:00:50;;;;;;;1.67;1.58;;;;;;;0.29;100.00;100453.16;4972823;28;20031;-67
2022/01/24 00:03:15;;;;;;;1.55;1.45;;;;;;;0.21;100.00;100450.22;4967163;28;20023;-67
2022/01/24 00:05:41;;;;;;;1.13;1.00;;;;;;;0.13;100.00;100451.50;4964894;28;20058;-67
2022/01/24 00:08:06;;;;;;;0.77;0.77;;;;;;;0.08;100.00;100450.38;4972591;28;20077;-67
2022/01/24 00:10:34;;;;;;;1.35;1.30;;;;;;;0.03;100.00;100449.28;4972660;28;20384;-66
2022/01/24 00:15:54;;;;;;;1.10;1.00;;;;;;;-0.06;100.00;100449.69;4972514;28;20031;-67
2022/01/24 00:29:06;;;;;;;1.75;1.65;;;;;;;-0.12;100.00;100440.88;4975991;28;20030;-67
2022/01/24 00:31:31;;;;;;;0.80;0.80;;;;;;;-0.18;100.00;100448.19;4976066;28;20387;-67
2022/01/24 00:33:56;;;;;;;1.23;1.17;;;;;;;-0.18;100.00;100443.09;4964956;28;20023;-66
2022/01/24 00:36:21;;;;;;;1.55;1.45;;;;;;;-0.28;100.00;100441.75;4972698;28;20035;-67
2022/01/24 00:38:47;;;;;;;3.85;1.23;;;;;;;-0.45;100.00;100445.94;4975742;28;20069;-67
2022/01/24 00:41:15;;;;;;;1.40;1.30;;;;;;;-0.43;100.00;100444.38;4975820;28;20026;-66
2022/01/24 00:46:40;;;;;;;1.92;1.80;;;;;;;-0.58;100.00;100441.00;4975680;28;20407;-67
2022/01/24 00:57:00;;;;;;;0.93;0.93;;;;;;;-0.69;100.00;100426.81;4975575;28;20045;-67
2022/01/24 00:59:25;;;;;;;0.98;0.98;;;;;;;-0.58;100.00;100433.34;4975499;28;20399;-67
2022/01/24 05:23:41;;;;;;;1.05;1.05;;;;;;;-1.42;100.00;100403.34;4918043;29;20412;-69
2022/01/24 05:26:08;;;;;;;2.80;2.60;;;;;;;-1.45;100.00;100404.06;4917321;29;20499;-69
2022/01/24 05:28:36;;;;;;;1.00;1.00;;;;;;;-1.37;100.00;100401.94;4918163;29;20111;-72
2022/01/24 05:31:02;;;;;;;3.90;2.13;;;;;;;-1.49;100.00;100402.13;4917519;29;20060;-71
2022/01/24 05:33:28;;;;;;;0.77;0.77;;;;;;;-1.47;100.00;100412.38;4920026;29;20444;-72
2022/01/24 05:35:53;;;;;;;3.05;2.85;;;;;;;-1.47;100.00;100408.16;4909019;28;20543;-71
2022/01/24 05:38:21;;;;;;;0.85;0.85;;;;;;;-1.37;100.00;100402.81;4955720;29;20106;-71
2022/01/24 05:40:47;;;;;;;3.47;1.45;;;;;;;-1.36;100.00;100408.75;4955483;28;20027;-72
2022/01/24 05:43:13;;;;;;;1.92;1.83;;;;;;;-1.23;100.00;100410.34;4955788;29;20027;-72
2022/01/24 05:45:38;;;;;;;4.32;1.58;;;;;;;-1.25;100.00;100415.34;4955384;29;20039;-71
2022/01/24 05:48:04;;;;;;;2.67;2.38;;;;;;;-1.07;100.00;100403.59;4955292;29;20058;-76
2022/01/24 05:50:30;;;;;;;1.35;1.30;;;;;;;-0.88;100.00;100410.56;4955287;29;20500;-72
2022/01/24 05:52:55;;;;;;;1.88;1.77;;;;;;;-0.57;100.00;100402.03;4955329;29;20035;-74
2022/01/24 05:55:22;;;;;;;1.80;1.70;;;;;;;-0.57;100.00;100407.13;4955055;29;20037;-74
2022/01/24 05:57:48;;;;;;;1.10;1.10;;;;;;;-0.76;100.00;100399.31;4954990;29;20040;-74
2022/01/24 06:00:13;;;;;;;1.65;1.38;;;;;;;-0.76;100.00;100404.41;4955170;29;20445;-74
2022/01/24 06:02:40;;;;;;;1.90;1.83;;;;;;;-0.90;100.00;100412.16;4943379;29;20040;-74
2022/01/24 06:05:06;;;;;;;0.80;0.80;;;;;;;-0.69;100.00;100412.44;4946937;29;20528;-74
2022/01/24 06:07:31;;;;;;;1.73;1.63;;;;;;;-0.92;100.00;100413.78;4954746;29;20026;-74
2022/01/24 06:09:57;;;;;;;1.02;1.02;;;;;;;-0.64;100.00;100417.78;4955430;29;20461;-74
2022/01/24 06:12:23;;;;;;;3.67;2.28;;;;;;;-0.69;100.00;100411.56;4955042;29;20078;-74
2022/01/24 06:14:49;;;;;;;2.42;2.25;;;;;;;-0.65;100.00;100421.97;4948569;29;20027;-74
2022/01/24 06:17:15;;;;;;;1.08;1.08;;;;;;;-0.49;100.00;100421.13;4946356;29;20511;-74
2022/01/24 06:19:40;;;;;;;2.65;1.38;;;;;;;-0.51;100.00;100422.72;4954871;29;20027;-74
2022/01/24 06:22:05;;;;;;;1.88;1.80;;;;;;;-0.42;100.00;100425.75;4953985;28;20035;-74
2022/01/24 06:24:31;;;;;;;3.55;1.85;;;;;;;-0.63;100.00;100427.16;4954694;29;20030;-74
2022/01/24 06:26:56;;;;;;;1.95;1.85;;;;;;;-0.57;100.00;100417.31;4954346;29;20035;-74
2022/01/24 06:29:21;;;;;;;3.33;2.78;;;;;;;-0.13;100.00;100411.09;4954670;29;20035;-74
2022/01/24 06:31:47;;;;;;;1.40;1.30;;;;;;;-0.40;100.00;100415.63;4951816;28;20027;-74
2022/01/24 06:34:13;;;;;;;2.60;2.40;;;;;;;-0.57;100.00;100417.31;4938740;29;20038;-74
2022/01/24 06:36:38;;;;;;;1.05;1.05;;;;;;;-0.65;100.00;100421.13;4954186;29;20035;-74
2022/01/24 06:39:05;;;;;;;1.35;1.35;;;;;;;-0.61;100.00;100416.28;4954299;29;20027;-74
2022/01/24 06:41:34;;;;;;;1.65;1.55;;;;;;;-0.58;100.00;100421.53;4954377;29;20031;-74
2022/01/24 06:44:00;;;;;;;2.17;1.98;;;;;;;-0.57;100.00;100427.50;4954457;29;20039;-74
2022/01/24 06:46:25;;;;;;;2.08;1.08;;;;;;;-0.60;100.00;100422.22;4954199;29;20034;-74
2022/01/24 06:48:50;;;;;;;2.15;1.95;;;;;;;-0.54;100.00;100432.72;4954250;29;20476;-74
2022/01/24 06:51:17;;;;;;;1.73;1.63;;;;;;;-0.41;100.00;100435.13;4954308;29;20019;-74
2022/01/24 06:53:43;;;;;;;2.15;2.05;;;;;;;-0.38;100.00;100435.31;4954136;29;20026;-74
2022/01/24 06:56:08;;;;;;;2.03;1.92;;;;;;;-0.16;100.00;100428.75;4954062;29;20031;-75
2022/01/24 06:58:35;;;;;;;1.45;1.40;;;;;;;-0.24;100.00;100446.22;4954205;29;20028;-75
2022/01/24 07:01:01;;;;;;;1.73;1.63;;;;;;;-0.28;100.00;100447.72;4954146;29;20019;-75
2022/01/24 07:03:27;;;;;;;1.83;1.73;;;;;;;-0.31;100.00;100447.53;4935796;29;20029;-75
2022/01/24 07:05:52;;;;;;;1.45;1.38;;;;;;;-0.42;100.00;100440.16;4941581;29;20481;-75
2022/01/24 07:08:18;;;;;;;3.08;2.42;;;;;;;-0.17;100.00;100444.84;4934836;29;20075;-75
2022/01/24 07:10:43;;;;;;;3.90;2.40;;;;;;;-0.21;100.00;100446.34;4935149;29;20032;-75
2022/01/24 07:13:09;;;;;;;1.05;1.05;;;;;;;-0.20;100.00;100452.31;4934937;29;20031;-75
2022/01/24 07:15:43;;;;;;;1.15;1.15;;;;;;;-0.21;100.00;100448.03;4934550;29;20034;-75
2022/01/24 07:18:57;;;;;;;3.28;2.10;;;;;;;-0.27;100.00;100459.66;4934650;29;20493;-75
2022/01/24 07:20:59;;;;;;;1.60;1.58;;;;;;;-0.15;100.00;100448.34;4934673;29;20032;-75
2022/01/24 07:23:25;;;;;;;1.67;1.58;;;;;;;-0.19;100.00;100461.69;4934877;29;20027;-75
2022/01/24 07:25:51;;;;;;;1.77;1.50;;;;;;;-0.21;100.00;100463.31;4934761;29;20372;-75
2022/01/24 07:28:17;;;;;;;1.80;1.70;;;;;;;-0.08;100.00;100460.59;4934748;29;20420;-75
2022/01/24 07:30:44;;;;;;;2.78;2.53;;;;;;;0.12;100.00;100454.84;4934691;29;20055;-75
2022/01/24 07:33:09;;;;;;;3.17;2.90;;;;;;;0.13;100.00;100461.69;4930903;29;20035;-75
2022/01/24 07:35:34;;;;;;;2.00;1.92;;;;;;;0.18;99.61;100465.34;4956131;28;20092;-75
2022/01/24 07:38:00;;;;;;;4.20;3.00;;;;;;;0.22;99.30;100467.25;4957719;29;20032;-75
2022/01/24 07:40:26;;;;;;;2.83;2.60;;;;;;;0.31;98.84;100461.75;4957832;28;20420;-75
2022/01/24 07:45:18;;;;;;;8.55;1.20;;;;;;;0.39;98.47;100464.69;4957502;29;20373;-75
2022/01/24 07:47:46;;;;;;;2.08;1.65;;;;;;;0.39;98.14;100469.78;4957302;29;20098;-75
2022/01/24 07:50:12;;;;;;;3.38;2.72;;;;;;;0.41;97.79;100478.38;4957547;29;20054;-75
2022/01/24 07:52:37;;;;;;;1.63;1.58;;;;;;;0.48;97.53;100477.88;4957606;29;20027;-75
2022/01/24 07:55:03;;;;;;;3.90;1.98;;;;;;;0.50;97.25;100478.84;4957330;29;20030;-75
2022/01/24 07:57:28;;;;;;;2.85;1.67;;;;;;;0.63;97.07;100473.56;4957160;29;20055;-68
2022/01/24 07:59:54;;;;;;;2.25;2.10;;;;;;;0.80;96.19;100476.03;4957405;29;20480;-68
2022/01/24 08:02:19;;;;;;;0.80;0.80;;;;;;;0.97;96.51;100473.50;4947031;29;20054;-68
2022/01/24 08:04:44;;;;;;;1.83;1.73;;;;;;;1.34;95.94;100474.34;4946054;29;20469;-68
2022/01/24 08:07:10;;;;;;;2.97;2.78;;;;;;;1.51;94.21;100474.31;4937805;29;20059;-68
2022/01/24 08:09:35;;;;;;;2.78;2.53;;;;;;;1.76;91.28;100481.41;4938102;29;20033;-68
2022/01/24 08:12:01;;;;;;;2.53;2.33;;;;;;;1.97;90.17;100483.16;4938281;29;20032;-68
2022/01/24 08:14:27;;;;;;;1.00;1.00;;;;;;;1.73;89.75;100488.91;4938079;29;20027;-68
2022/01/24 08:16:53;;;;;;;1.90;1.77;;;;;;;1.70;90.86;100483.69;4937340;29;20544;-68
2022/01/24 08:19:18;;;;;;;4.32;2.88;;;;;;;2.04;89.95;100482.63;4937833;29;20036;-68
2022/01/24 08:21:45;;;;;;;6.60;2.15;;;;;;;3.56;84.24;100476.84;4937804;29;20039;-68
2022/01/24 08:24:11;;;;;;;3.25;3.03;;;;;;;6.36;70.79;100466.09;4937880;29;20450;-68
2022/01/24 08:26:36;;;;;;;4.93;3.75;;;;;;;8.21;62.54;100446.16;4937428;29;20059;-68
2022/01/24 08:29:03;;;;;;;4.80;3.97;;;;;;;10.08;55.63;100451.53;4937681;29;20031;-68
2022/01/24 08:31:28;;;;;;;3.55;2.80;;;;;;;11.75;51.77;100449.41;4937528;29;20493;-68
2022/01/24 08:33:53;;;;;;;3.08;2.40;;;;;;;13.31;45.76;100440.94;4940846;29;20042;-68
2022/01/24 08:36:19;;;;;;;2.50;2.08;;;;;;;12.46;47.28;100447.88;4937169;29;20036;-68
2022/01/24 08:38:47;;;;;;;2.45;2.20;;;;;;;13.24;45.00;100447.00;4937445;29;20079;-68
2022/01/24 08:41:20;;;;;;;4.47;2.92;;;;;;;13.84;43.47;100445.97;4937446;29;20032;-68
2022/01/24 08:46:14;;;;;;;4.88;2.10;;;;;;;15.51;39.86;100444.66;4936879;29;20038;-68
2022/01/24 08:48:42;;;;;;;4.07;2.28;;;;;;;15.25;39.13;100446.72;4937223;29;20441;-68
2022/01/24 08:51:07;;;;;;;4.80;2.63;;;;;;;15.46;40.12;100446.47;4937263;29;20035;-69
2022/01/24 08:53:34;;;;;;;4.30;2.47;;;;;;;14.30;39.72;100447.44;4937162;29;20127;-69
2022/01/24 08:56:06;;;;;;;2.08;1.88;;;;;;;16.68;36.72;100439.63;4936918;29;20500;-68
2022/01/24 08:58:34;;;;;;;1.27;1.20;;;;;;;15.27;38.89;100447.53;4935736;29;20056;-69
2022/01/24 09:00:59;;;;;;;11.98;4.88;;;;;;;15.53;38.76;100448.13;4937336;29;20404;-68
2022/01/24 09:03:29;;;;;;;3.83;2.47;;;;;;;12.77;43.12;100460.91;4940317;29;20023;-68
2022/01/24 09:05:57;;;;;;;3.47;2.63;;;;;;;11.27;46.93;100471.63;4949468;29;20111;-68
2022/01/24 09:08:23;;;;;;;2.92;2.38;;;;;;;9.12;52.27;100479.59;4956096;29;20023;-68
2022/01/24 09:10:50;;;;;;;1.63;1.52;;;;;;;9.56;52.77;100476.78;4956163;29;20038;-68
2022/01/24 09:13:15;;;;;;;6.20;2.22;;;;;;;10.17;51.81;100467.19;4955887;29;20034;-68
2022/01/24 09:15:41;;;;;;;4.15;1.77;;;;;;;12.07;47.09;100459.91;4955718;29;20047;-68
2022/01/24 09:18:07;;;;;;;4.57;2.72;;;;;;;12.89;44.86;100458.28;4955848;29;20031;-68
2022/01/24 09:20:34;;;;;;;2.65;1.85;;;;;;;13.49;42.47;100450.41;4955910;29;20023;-68
2022/01/24 09:23:00;;;;;;;4.15;1.98;;;;;;;13.87;42.33;100445.06;4955994;28;20374;-68
2022/01/24 09:25:26;;;;;;;3.63;2.17;;;;;;;14.50;40.97;100435.16;4955639;29;20023;-68
2022/01/24 09:27:51;;;;;;;2.65;1.85;;;;;;;13.56;42.12;100445.19;4955599;29;20023;-68
2022/01/24 09:30:20;;;;;;;16.90;2.15;;;;;;;15.23;39.75;100448.44;4955850;29;20034;-68
2022/01/24 09:32:46;;;;;;;3.40;1.98;;;;;;;15.40;39.54;100443.94;4945522;29;20019;-68
2022/01/24 09:35:13;;;;;;;2.42;1.77;;;;;;;14.49;40.10;100441.25;4940422;29;20051;-68
2022/01/24 09:37:39;;;;;;;3.15;1.50;;;;;;;13.54;41.82;100444.34;4936169;29;20028;-69
2022/01/24 09:40:06;;;;;;;2.70;1.48;;;;;;;15.35;39.05;100438.75;4936311;29;20035;-69
2022/01/24 09:42:32;;;;;;;1.90;1.60;;;;;;;16.42;37.37;100436.53;4936701;29;20050;-69
2022/01/24 09:44:57;;;;;;;4.68;2.15;;;;;;;15.09;38.78;100439.03;4950930;29;20485;-69
2022/01/24 09:47:23;;;;;;;1.67;1.58;;;;;;;16.45;37.23;100436.50;4936090;29;20031;-69
2022/01/24 09:49:50;;;;;;;3.97;1.42;;;;;;;16.08;36.13;100442.25;4936287;29;20548;-69
2022/01/24 09:52:15;;;;;;;1.75;1.33;;;;;;;14.79;39.50;100452.34;4936175;29;20087;-69
2022/01/24 09:54:41;;;;;;;3.45;1.75;;;;;;;14.11;40.51;100451.88;4936138;29;20031;-68
2022/01/24 09:57:06;;;;;;;1.38;1.27;;;;;;;16.80;36.19;100437.72;4933452;29;20123;-69
2022/01/24 09:59:32;;;;;;;2.08;1.50;;;;;;;15.42;37.35;100448.28;4936206;29;20041;-68
2022/01/24 10:01:59;;;;;;;1.73;1.25;;;;;;;13.75;39.16;100452.94;4947859;29;20038;-69
2022/01/24 10:04:26;;;;;;;2.20;1.02;;;;;;;14.29;40.15;100440.50;4942233;29;20027;-68
2022/01/24 10:07:07;;;;;;;1.85;1.13;;;;;;;16.73;34.62;100441.31;4935708;29;20027;-69
2022/01/24 10:09:41;;;;;;;1.13;1.05;;;;;;;15.07;37.95;100452.97;4935754;29;20036;-68
2022/01/24 10:18:09;;;;;;;0.70;0.70;;;;;;;14.86;38.56;100438.38;4935597;29;20462;-68
2022/01/24 10:20:39;;;;;;;0.77;0.68;;;;;;;16.47;35.48;100432.09;4935679;29;20086;-69
2022/01/24 10:23:12;;;;;;;1.08;1.00;;;;;;;17.18;34.00;100430.03;4935668;29;20023;-69
2022/01/24 10:25:51;;;;;;;0.77;0.77;;;;;;;16.84;33.81;100426.31;4935489;29;20543;-68
2022/01/24 10:28:27;;;;;;;0.73;0.70;;;;;;;15.66;35.37;100436.72;4935295;29;20030;-68
2022/01/24 10:31:06;;;;;;;1.70;1.23;;;;;;;13.26;39.59;100442.69;4935516;29;20027;-68
2022/01/24 10:33:49;;;;;;;;;;;;;;;15.64;36.08;100430.63;4939258;29;20031;-68
2022/01/24 10:36:25;;;;;;;0.63;0.63;;;;;;;16.24;35.12;100426.34;4950314;29;19910;-69
2022/01/24 10:38:55;;;;;;;0.60;0.60;;;;;;;15.10;36.24;100422.47;4954400;29;20066;-69
2022/01/24 10:41:24;;;;;;;0.80;0.80;;;;;;;15.97;34.56;100410.16;4954501;28;20501;-68
2022/01/24 10:43:55;;;;;;;1.47;0.97;;;;;;;15.47;35.98;100416.84;4954343;29;20054;-68
2022/01/24 10:46:23;;;;;;;0.70;0.70;;;;;;;14.17;37.77;100412.78;4954175;29;20050;-68
2022/01/24 10:49:03;;;;;;;1.00;0.90;;;;;;;13.36;39.76;100418.34;4954098;29;20388;-69
2022/01/24 10:51:37;;;;;;;0.88;0.88;;;;;;;16.32;34.81;100404.41;4954191;29;20498;-68
2022/01/24 10:54:03;;;;;;;0.95;0.70;;;;;;;16.32;36.08;100403.56;4954111;29;20084;-68
2022/01/24 10:56:43;;;;;;;1.40;1.30;;;;;;;14.28;38.04;100408.34;4953880;29;20513;-68
2022/01/24 10:59:11;;;;;;;0.77;0.77;;;;;;;16.03;35.45;100399.59;4954030;29;20167;-68
2022/01/24 11:01:38;;;;;;;1.30;1.20;;;;;;;14.32;36.97;100409.19;4953668;29;20029;-68
2022/01/24 11:04:06;;;;;;;0.82;0.63;;;;;;;14.93;36.63;100407.84;4930604;29;20028;-68
2022/01/24 11:06:40;;;;;;;1.50;0.70;;;;;;;14.05;39.33;100407.63;4951911;29;20098;-68
2022/01/24 11:09:23;;;;;;;1.30;1.20;;;;;;;13.87;39.35;100400.75;4953575;28;20024;-68
2022/01/24 11:11:51;;;;;;;1.25;1.05;;;;;;;12.61;41.98;100400.22;4953845;29;20035;-68
2022/01/24 11:14:19;;;;;;;1.17;1.05;;;;;;;15.12;38.32;100394.59;4953795;28;20042;-69
2022/01/24 11:16:45;;;;;;;1.23;1.00;;;;;;;13.62;39.59;100395.69;4941521;29;20024;-68
2022/01/24 11:19:27;;;;;;;1.00;0.75;;;;;;;12.02;42.27;100394.09;4934601;29;20465;-68
2022/01/24 11:21:55;;;;;;;0.73;0.73;;;;;;;12.91;41.27;100394.13;4934734;29;20032;-68
2022/01/24 11:24:28;;;;;;;1.05;0.93;;;;;;;12.70;41.77;100391.53;4934416;29;20473;-68
2022/01/24 11:26:54;;;;;;;2.00;0.88;;;;;;;12.14;42.36;100392.41;4934553;29;20147;-68
2022/01/24 11:29:20;;;;;;;0.65;0.65;;;;;;;12.48;42.50;100394.16;4934440;29;20103;-76
2022/01/24 11:32:10;;;;;;;0.68;0.68;;;;;;;14.48;38.90;100379.53;4935627;29;20046;-75
2022/01/24 11:34:40;;;;;;;0.80;0.80;;;;;;;15.01;37.60;100380.78;4943371;29;20395;-76
2022/01/24 11:37:06;;;;;;;;;;;;;;;16.12;36.09;100375.94;4953853;29;20469;-76
2022/01/24 11:39:33;;;;;;;0.65;0.65;;;;;;;14.27;38.35;100384.91;4953657;29;19961;-76
2022/01/24 11:41:58;;;;;;;1.00;0.93;;;;;;;15.01;37.81;100391.25;4923349;28;20412;-75
2022/01/24 11:44:26;;;;;;;0.40;0.40;;;;;;;15.43;36.97;100382.06;4935828;29;20024;-76
2022/01/24 11:46:56;;;;;;;0.70;0.70;;;;;;;15.95;35.75;100372.69;4934389;29;20397;-76
2022/01/24 11:49:25;;;;;;;0.77;0.77;;;;;;;14.03;39.23;100371.16;4934980;29;20023;-75
2022/01/24 11:51:59;;;;;;;;;;;;;;;15.20;36.96;100370.16;4935083;29;20046;-75
2022/01/24 11:54:45;;;;;;;0.88;0.85;;;;;;;13.82;39.42;100376.47;4934595;29;19911;-76
2022/01/24 11:57:26;;;;;;;0.65;0.60;;;;;;;15.57;37.22;100361.00;4934173;29;20034;-75
2022/01/24 12:00:01;;;;;;;0.68;0.68;;;;;;;14.84;37.48;100367.03;4925755;29;20151;-76
2022/01/24 12:02:30;;;;;;;0.75;0.60;;;;;;;14.91;37.51;100358.28;4914996;29;20036;-76
2022/01/24 12:05:10;;;;;;;0.60;0.60;;;;;;;14.31;39.85;100355.28;4926782;29;20062;-76
2022/01/24 12:07:45;;;;;;;0.60;0.60;;;;;;;14.30;38.49;100348.34;4934182;29;20019;-75
2022/01/24 12:10:42;;;;;;;0.93;0.70;;;;;;;15.25;38.55;100355.31;4934321;29;20024;-76
2022/01/24 12:13:22;;;;;;;0.80;0.80;;;;;;;16.00;36.68;100344.72;4934459;29;20107;-76
2022/01/24 12:15:47;;;;;;;0.82;0.73;;;;;;;16.30;34.96;100342.56;4934012;29;20091;-76
2022/01/24 12:18:28;;;;;;;1.48;1.17;;;;;;;15.27;37.23;100350.91;4934298;29;20032;-76
2022/01/24 12:21:05;;;;;;;0.80;0.80;;;;;;;14.02;39.22;100353.78;4936115;29;20023;-76
2022/01/24 12:23:35;;;;;;;0.73;0.73;;;;;;;16.18;36.58;100344.47;4937810;29;20055;-76
2022/01/24 12:26:06;;;;;;;;;;;;;;;14.96;36.81;100343.44;4937927;29;20031;-76
2022/01/24 12:28:43;;;;;;;1.05;0.93;;;;;;;15.76;36.06;100339.88;4937586;29;20013;-76
2022/01/24 12:31:42;;;;;;;2.22;1.00;;;;;;;16.48;34.93;100331.75;4922401;29;20036;-76
2022/01/24 12:34:17;;;;;;;0.50;0.50;;;;;;;13.89;37.85;100342.56;4921672;29;20114;-76
2022/01/24 12:36:50;;;;;;;0.50;0.50;;;;;;;13.75;39.31;100344.41;4936884;29;20748;-76
2022/01/24 12:39:45;;;;;;;0.70;0.70;;;;;;;12.50;41.70;100330.00;4937520;29;20032;-76
2022/01/24 12:42:29;;;;;;;0.88;0.85;;;;;;;10.25;47.67;100338.63;4937591;29;20174;-76
2022/01/24 12:47:39;;;;;;;1.10;1.00;;;;;;;9.13;51.79;100336.53;4937141;29;20087;-75
2022/01/24 12:50:06;;;;;;;1.20;1.10;;;;;;;8.67;52.46;100326.44;4937352;29;20046;-75
2022/01/24 12:52:31;;;;;;;1.15;1.13;;;;;;;8.70;53.49;100333.34;4937406;29;20024;-75
2022/01/24 12:54:59;;;;;;;0.70;0.70;;;;;;;8.78;53.77;100329.16;4937278;29;20054;-75
2022/01/24 12:57:32;;;;;;;1.52;0.80;;;;;;;7.86;56.50;100322.50;4936935;29;20039;-75
2022/01/24 13:00:03;;;;;;;2.55;1.00;;;;;;;8.70;52.89;100318.75;4919845;28;20473;-75
2022/01/24 13:02:32;;;;;;;2.00;1.52;;;;;;;8.79;53.05;100314.53;4917750;29;20028;-75
2022/01/24 13:05:09;;;;;;;0.80;0.65;;;;;;;8.81;53.30;100313.72;4929227;29;20027;-75
2022/01/24 13:07:36;;;;;;;2.03;1.90;;;;;;;8.58;53.58;100315.09;4936890;29;20030;-75
2022/01/24 13:10:04;;;;;;;1.05;1.05;;;;;;;8.21;54.74;100319.63;4936818;29;20489;-75
2022/01/24 13:12:30;;;;;;;1.08;1.08;;;;;;;8.59;55.13;100316.81;4936967;29;20028;-75
2022/01/24 13:14:59;;;;;;;0.70;0.70;;;;;;;8.72;54.18;100309.28;4936749;29;20028;-75
2022/01/24 13:23:06;;;;;;;0.70;0.70;;;;;;;8.32;54.33;100307.78;4937094;29;20556;-75
2022/01/24 13:25:36;;;;;;;1.95;1.38;;;;;;;8.60;54.79;100308.22;4936526;29;20499;-75
2022/01/24 13:28:03;;;;;;;0.52;0.52;;;;;;;8.70;54.31;100299.75;4936652;29;20024;-75
2022/01/24 13:30:37;;;;;;;1.83;1.73;;;;;;;8.50;55.31;100302.91;4926695;29;20028;-77
2022/01/24 13:33:12;;;;;;;1.65;1.30;;;;;;;8.06;55.46;100303.91;4919691;29;20027;-76
2022/01/24 13:35:46;;;;;;;0.90;0.90;;;;;;;7.83;56.96;100300.91;4928207;29;20524;-75
2022/01/24 13:38:15;;;;;;;1.65;0.93;;;;;;;8.21;56.26;100296.41;4935528;29;20441;-75
2022/01/24 13:40:54;;;;;;;1.87;1.07;;;;;;;7.60;56.76;100297.94;4936366;29;20094;-75
2022/01/24 13:43:34;;;;;;;1.02;1.02;;;;;;;8.11;56.01;100295.38;4922185;29;20032;-75
2022/01/24 13:46:02;;;;;;;0.80;0.80;;;;;;;7.90;55.96;100292.47;4912313;29;20538;-75
2022/01/24 13:48:27;;;;;;;2.63;0.82;;;;;;;8.17;55.97;100287.75;4912840;29;20020;-74
2022/01/24 13:50:58;;;;;;;0.80;0.80;;;;;;;8.23;55.97;100298.19;4929326;29;20031;-75
2022/01/24 13:53:35;;;;;;;1.60;1.50;;;;;;;7.96;56.61;100296.00;4936320;29;20023;-75
2022/01/24 13:56:24;;;;;;;0.85;0.77;;;;;;;8.01;56.76;100290.06;4935793;29;20133;-75
2022/01/24 13:58:58;;;;;;;0.82;0.82;;;;;;;7.97;56.38;100290.00;4919694;29;20024;-75
2022/01/24 14:01:23;;;;;;;0.95;0.95;;;;;;;7.99;56.62;100297.78;4921783;29;20039;-75
2022/01/24 14:03:56;;;;;;;0.60;0.60;;;;;;;7.71;57.17;100288.69;4919218;29;20034;-75
2022/01/24 14:06:22;;;;;;;1.13;1.05;;;;;;;7.61;57.27;100297.09;4917049;29;20024;-75
2022/01/24 14:09:11;;;;;;;1.70;1.50;;;;;;;7.63;57.31;100303.16;4916868;29;20110;-75
2022/01/24 14:11:54;;;;;;;1.23;0.90;;;;;;;7.84;57.36;100298.38;4916976;29;20031;-73
2022/01/24 14:14:29;;;;;;;0.68;0.68;;;;;;;7.71;57.37;100301.59;4916601;29;20111;-75
2022/01/24 14:17:18;;;;;;;1.30;1.20;;;;;;;7.72;57.74;100298.16;4916205;29;20039;-75
2022/01/24 14:19:39;;;;;;;0.98;0.98;;;;;;;7.86;56.64;100296.69;4916521;29;20040;-75
2022/01/24 14:22:06;;;;;;;0.80;0.80;;;;;;;7.96;57.18;100298.59;4916701;29;20024;-75
2022/01/24 14:24:58;;;;;;;0.70;0.70;;;;;;;7.89;57.07;100301.91;4916543;29;20518;-75
2022/01/24 14:27:44;;;;;;;1.42;1.38;;;;;;;8.09;57.18;100298.81;4916058;29;20043;-75
2022/01/24 14:30:12;;;;;;;0.82;0.82;;;;;;;8.09;56.76;100293.63;4918297;29;20491;-75
2022/01/24 14:32:58;;;;;;;0.85;0.85;;;;;;;7.70;56.94;100299.84;4915999;29;20089;-75
2022/01/24 14:35:24;;;;;;;0.60;0.60;;;;;;;7.56;57.13;100296.16;4927438;29;20111;-75
2022/01/24 14:37:55;;;;;;;0.50;0.50;;;;;;;7.47;57.21;100296.84;4935140;29;20114;-75
2022/01/24 14:40:35;;;;;;;1.90;1.05;;;;;;;7.64;57.85;100289.41;4935311;29;20027;-75
2022/01/24 14:45:45;;;;;;;1.05;1.00;;;;;;;7.31;58.62;100298.25;4935263;29;20512;-76
2022/01/24 14:48:10;;;;;;;0.75;0.75;;;;;;;7.39;58.75;100294.09;4935242;29;20024;-75
2022/01/24 14:50:36;;;;;;;1.00;0.98;;;;;;;7.13;59.14;100301.31;4935129;29;20049;-76
2022/01/24 14:53:05;;;;;;;0.80;0.80;;;;;;;7.28;59.36;100299.91;4935318;29;20039;-75
2022/01/24 14:55:30;;;;;;;0.60;0.60;;;;;;;7.08;59.41;100302.06;4935055;29;20027;-75
2022/01/24 14:57:56;;;;;;;0.73;0.73;;;;;;;6.96;60.14;100305.25;4935057;29;20035;-75
2022/01/24 15:00:22;;;;;;;0.80;0.80;;;;;;;6.83;60.33;100296.41;4926044;29;20115;-75
2022/01/24 15:02:47;;;;;;;0.85;0.82;;;;;;;6.93;60.47;100307.78;4915626;29;20036;-76
2022/01/24 15:05:15;;;;;;;0.95;0.95;;;;;;;6.94;60.76;100305.22;4926804;29;20452;-76
2022/01/24 15:07:40;;;;;;;0.73;0.73;;;;;;;6.92;61.30;100301.75;4935024;29;20027;-76
2022/01/24 15:10:06;;;;;;;0.77;0.77;;;;;;;6.79;61.42;100304.03;4934999;29;20492;-76
2022/01/24 15:12:32;;;;;;;1.55;1.30;;;;;;;6.79;61.19;100301.47;4934962;29;20028;-75
2022/01/24 15:15:00;;;;;;;0.60;0.60;;;;;;;6.78;61.98;100303.16;4934840;29;20143;-74
2022/01/24 15:17:45;;;;;;;1.73;1.63;;;;;;;6.61;61.85;100309.63;4934366;29;20490;-75
2022/01/24 15:25:38;;;;;;;0.60;0.60;;;;;;;6.28;64.13;100310.59;4934923;29;20055;-76
2022/01/24 15:28:04;;;;;;;1.48;1.38;;;;;;;6.23;64.20;100312.19;4918784;29;20024;-76
2022/01/24 15:30:29;;;;;;;1.42;1.35;;;;;;;6.13;64.77;100315.38;4918898;29;20035;-76
2022/01/24 15:32:55;;;;;;;0.88;0.88;;;;;;;6.10;64.77;100310.16;4915645;29;20035;-76
2022/01/24 15:35:21;;;;;;;0.93;0.93;;;;;;;5.96;65.25;100317.53;4926239;29;20028;-76
2022/01/24 15:37:48;;;;;;;1.05;1.05;;;;;;;5.88;65.68;100312.16;4915180;29;20028;-67
2022/01/24 15:40:16;;;;;;;1.17;1.02;;;;;;;5.84;65.99;100317.16;4915527;29;20429;-67
2022/01/24 15:43:03;;;;;;;0.80;0.80;;;;;;;5.72;66.34;100322.88;4929882;29;20028;-67
2022/01/24 15:45:36;;;;;;;1.05;1.05;;;;;;;5.61;67.18;100314.88;4915343;29;20054;-68
2022/01/24 15:48:04;;;;;;;0.73;0.73;;;;;;;5.61;67.38;100308.88;4912051;29;20028;-67
2022/01/24 15:50:29;;;;;;;1.13;1.05;;;;;;;5.48;67.89;100309.38;4908881;29;20068;-67
2022/01/24 15:52:56;;;;;;;0.88;0.88;;;;;;;5.41;67.97;100316.94;4904274;28;20028;-67
2022/01/24 15:55:27;;;;;;;1.95;1.48;;;;;;;5.37;68.53;100314.22;4917821;29;20028;-67
2022/01/24 15:57:55;;;;;;;1.73;1.63;;;;;;;5.30;68.76;100313.16;4919141;29;20481;-67
2022/01/24 16:00:40;;;;;;;1.48;1.23;;;;;;;5.27;68.67;100312.19;4922192;29;20028;-67
2022/01/24 16:03:06;;;;;;;2.17;1.27;;;;;;;5.23;69.53;100311.25;4915262;29;20473;-67
2022/01/24 16:05:34;;;;;;;1.75;1.60;;;;;;;5.10;70.01;100306.59;4929800;29;20382;-68
2022/01/24 16:08:00;;;;;;;1.27;1.17;;;;;;;5.09;70.30;100310.88;4937767;29;20031;-68
2022/01/24 16:10:32;;;;;;;1.90;1.67;;;;;;;5.01;71.15;100303.75;4937870;29;20036;-67
2022/01/24 16:12:57;;;;;;;2.78;2.58;;;;;;;4.92;71.80;100308.63;4937888;29;20120;-68
2022/01/24 16:15:27;;;;;;;3.90;1.65;;;;;;;4.86;71.85;100319.59;4937918;29;20031;-67
2022/01/24 16:17:53;;;;;;;3.38;1.83;;;;;;;4.71;73.10;100314.88;4937569;29;20059;-67
2022/01/24 16:23:20;;;;;;;1.55;1.45;;;;;;;4.45;75.03;100315.75;4910393;29;20588;-67
2022/01/24 16:25:48;;;;;;;1.48;1.25;;;;;;;4.36;75.10;100317.22;4917593;29;20027;-67
2022/01/24 16:28:24;;;;;;;0.70;0.70;;;;;;;4.35;75.04;100314.59;4918456;29;20028;-67
2022/01/24 16:30:54;;;;;;;1.88;1.25;;;;;;;4.27;75.32;100321.19;4921681;29;20047;-67
2022/01/24 16:33:21;;;;;;;1.25;1.15;;;;;;;4.19;75.62;100318.38;4922076;29;20032;-67
2022/01/24 16:35:49;;;;;;;1.55;1.45;;;;;;;4.12;76.42;100322.44;4929345;29;20519;-67
2022/01/24 16:38:15;;;;;;;2.95;1.15;;;;;;;4.11;76.37;100319.84;4937221;29;20040;-67
2022/01/24 16:40:47;;;;;;;0.75;0.75;;;;;;;4.03;76.96;100327.25;4937461;29;20054;-69
2022/01/24 16:48:23;;;;;;;2.30;2.20;;;;;;;3.80;78.89;100328.19;4937493;29;20037;-69
2022/01/24 16:50:49;;;;;;;2.15;1.10;;;;;;;3.69;80.04;100324.38;4937237;29;20031;-69
2022/01/24 16:53:17;;;;;;;1.35;1.30;;;;;;;3.63;79.11;100325.06;4937158;29;20508;-69
2022/01/24 16:55:44;;;;;;;0.95;0.95;;;;;;;3.49;79.99;100331.38;4936700;29;20062;-69
2022/01/24 16:58:10;;;;;;;1.23;1.23;;;;;;;3.40;80.42;100331.06;4937180;29;20035;-68